Terminal Aerodrome Forecast
Issued by NWS Wakefield, VA

Home | Current Version | Previous Version | Text Only | Print | Product List | Glossary On
Versions: 1 2 3 4 5 6 7 8 9 10 11 12 13 14 15
000
FTUS41 KAKQ 012339
TAFRIC
TAF
KRIC 012339Z 0200/0224 23008KT P6SM SCT100 BKN200
     FM020900 VRB04KT P6SM BKN050 OVC120
     FM021300 32005KT 5SM -RA BR OVC050
     FM021600 VRB05KT P6SM SCT040 BKN150=

USA.gov is the U.S. government's official web portal to all federal, state and local government web resources and services.